Pratt, Minnesota
Current Conditions -  °F | °C
As of 5:55 PM on Saturday 22 Nov 2014 (Local Time) from KOWA Reporting Station
Haze Haze  
Wind Chill: 34°   Ceiling: 200
Heat Index: 39°   Visibility: 2.5mi
Dew Point: 37°   Wind: 8mph
Humidity: 93%   Direction: 160°SSE
Pressure: 29.62"   Gusts: NA
Location:  44.0575°N, 93.2082°W
Report Text: KOWA 222355Z AUTO 16007KT 2 1/2SM BR OVC002 04/03 A2962 RMK AO2
Loading
Personal Weather Stations






























Interactive Weather Map New forecast layout! Learn more

10-Day Weather Forecast

Advertisements
Track Severe Weather on mobile